Time;durP1;ratioP1;P1;durP2;ratioP2;P2;SDS_P1;SDS_P2;PMS_P1;PMS_P2;Temp;Humidity;BMP_temperature;BMP_pressure;BME280_temperature;BME280_humidity;BME280_pressure;Samples;Min_cycle;Max_cycle;Signal;HPM_P1;HPM_P2
2023/05/30 00:01:18;;;;;;;4.82;1.33;;;21.10;61.80;;;;;;7390066;19;19939;-63
2023/05/30 00:03:47;;;;;;;3.58;1.15;;;21.20;61.90;;;;;;7389619;19;19931;-62
2023/05/30 00:06:17;;;;;;;;;;;21.10;61.90;;;;;;7392946;19;19926;-62
2023/05/30 00:08:48;;;;;;;4.85;1.23;;;21.20;62.00;;;;;;7389757;19;19926;-62
2023/05/30 00:11:18;;;;;;;4.70;1.88;;;21.10;62.00;;;;;;7393030;19;19929;-62
2023/05/30 00:13:48;;;;;;;4.38;1.17;;;21.10;62.00;;;;;;7388979;19;20255;-63
2023/05/30 00:16:19;;;;;;;5.72;1.95;;;21.10;62.10;;;;;;7393212;19;19930;-62
2023/05/30 00:18:52;;;;;;;5.28;1.15;;;21.10;62.10;;;;;;7391524;19;19927;-62
2023/05/30 00:21:22;;;;;;;4.00;1.30;;;21.10;62.20;;;;;;7383115;19;19926;-63
2023/05/30 00:23:54;;;;;;;5.18;1.45;;;21.10;62.80;;;;;;7382609;19;19923;-62
2023/05/30 00:26:23;;;;;;;4.03;1.23;;;21.10;62.30;;;;;;7389495;19;19950;-62
2023/05/30 00:28:52;;;;;;;5.55;1.10;;;21.10;62.40;;;;;;7392356;19;19978;-63
2023/05/30 00:31:21;;;;;;;4.25;0.90;;;21.00;62.30;;;;;;7393508;19;20328;-62
2023/05/30 00:33:50;;;;;;;4.25;1.23;;;21.10;62.40;;;;;;7395374;19;19922;-62
2023/05/30 00:36:19;;;;;;;6.75;3.70;;;21.00;62.40;;;;;;7402958;19;22862;-62
2023/05/30 00:38:48;;;;;;;5.65;1.63;;;21.00;62.40;;;;;;7398570;19;19919;-62
2023/05/30 00:41:20;;;;;;;8.75;3.25;;;21.00;62.40;;;;;;7401683;19;19986;-61
2023/05/30 00:43:49;;;;;;;5.93;1.75;;;21.00;62.40;;;;;;7403213;19;19950;-63
2023/05/30 00:46:19;;;;;;;6.85;2.33;;;21.00;62.50;;;;;;7398261;19;20616;-62
2023/05/30 00:48:48;;;;;;;;;;;21.00;62.60;;;;;;7401807;19;19933;-63
2023/05/30 00:51:20;;;;;;;11.43;2.88;;;21.00;62.60;;;;;;7402338;19;19926;-62
2023/05/30 00:53:50;;;;;;;8.77;3.22;;;21.00;62.60;;;;;;7400277;19;19919;-62
2023/05/30 00:56:22;;;;;;;;;;;20.90;62.60;;;;;;7404966;19;19929;-62
2023/05/30 00:58:52;;;;;;;10.82;3.00;;;20.90;62.60;;;;;;7394120;19;19919;-63
2023/05/30 01:01:23;;;;;;;7.80;2.78;;;20.90;62.70;;;;;;7397143;19;19918;-62
2023/05/30 01:03:53;;;;;;;14.15;4.15;;;20.90;62.70;;;;;;7400350;19;20632;-62
2023/05/30 01:06:22;;;;;;;;;;;20.90;62.80;;;;;;7406177;19;19915;-63
2023/05/30 01:08:51;;;;;;;17.55;5.50;;;20.90;62.80;;;;;;7399962;19;20269;-62
2023/05/30 01:11:32;;;;;;;17.67;4.72;;;20.90;62.80;;;;;;7397591;19;19994;-62
2023/05/30 01:14:09;;;;;;;21.05;6.72;;;20.80;62.80;;;;;;7398430;19;19928;-62
2023/05/30 01:16:45;;;;;;;19.60;7.20;;;20.80;62.80;;;;;;7402190;19;19930;-62
2023/05/30 01:19:31;;;;;;;17.70;7.25;;;20.90;62.90;;;;;;7396646;19;19919;-63
2023/05/30 01:22:16;;;;;;;23.73;7.47;;;20.80;62.90;;;;;;7398569;19;19926;-62
2023/05/30 01:24:55;;;;;;;24.80;9.20;;;20.80;63.00;;;;;;7406346;19;20475;-62
2023/05/30 01:27:36;;;;;;;22.52;7.80;;;20.80;63.00;;;;;;7404352;19;19922;-62
2023/05/30 01:30:10;;;;;;;22.63;7.88;;;20.80;63.00;;;;;;7403181;19;19910;-62
2023/05/30 01:32:40;;;;;;;24.80;8.38;;;20.80;63.00;;;;;;7404286;19;19922;-62
2023/05/30 01:35:21;;;;;;;31.88;10.02;;;20.80;63.00;;;;;;7401690;19;20023;-62
2023/05/30 01:37:51;;;;;;;34.03;13.57;;;20.80;63.10;;;;;;7403017;19;22143;-62
2023/05/30 01:40:29;;;;;;;34.25;11.45;;;20.80;63.10;;;;;;7398611;19;19926;-62
2023/05/30 01:43:03;;;;;;;38.30;12.65;;;20.80;63.10;;;;;;7390931;19;19930;-62
2023/05/30 01:45:48;;;;;;;46.95;15.52;;;20.80;63.10;;;;;;7402421;19;19926;-62
2023/05/30 01:48:24;;;;;;;44.15;15.38;;;20.80;63.20;;;;;;7403096;19;19952;-62
2023/05/30 01:50:55;;;;;;;41.35;14.65;;;20.70;63.70;;;;;;7402049;19;19930;-63
2023/05/30 01:53:28;;;;;;;40.63;13.50;;;20.70;63.20;;;;;;7402140;19;20149;-62
2023/05/30 01:56:00;;;;;;;48.40;15.40;;;20.70;63.20;;;;;;7404971;19;19950;-62
2023/05/30 01:58:33;;;;;;;43.72;15.07;;;20.70;63.30;;;;;;7400713;19;20392;-62
2023/05/30 02:01:07;;;;;;;43.08;15.32;;;20.70;63.30;;;;;;7400969;19;19923;-62
2023/05/30 02:03:36;;;;;;;41.03;16.55;;;20.70;63.40;;;;;;7402903;19;19943;-63
2023/05/30 02:06:06;;;;;;;44.60;16.30;;;20.70;63.40;;;;;;7403773;19;19986;-62
2023/05/30 02:08:35;;;;;;;49.83;16.40;;;20.70;63.40;;;;;;7402895;19;19954;-62
2023/05/30 02:11:04;;;;;;;47.83;18.40;;;20.70;63.40;;;;;;7403396;19;19955;-62
2023/05/30 02:13:33;;;;;;;45.70;16.70;;;20.70;63.50;;;;;;7401863;19;19943;-62
2023/05/30 02:16:06;;;;;;;49.80;18.92;;;20.60;63.40;;;;;;7402277;19;19940;-62
2023/05/30 02:18:35;;;;;;;65.43;22.65;;;20.60;63.40;;;;;;7400888;19;20252;-62
2023/05/30 02:21:04;;;;;;;54.97;18.40;;;20.60;63.50;;;;;;7401348;19;19990;-62
2023/05/30 02:23:33;;;;;;;54.58;20.40;;;20.60;63.50;;;;;;7401223;19;19914;-62
2023/05/30 02:26:02;;;;;;;61.30;22.98;;;20.60;63.50;;;;;;7399600;19;19932;-62
2023/05/30 02:28:31;;;;;;;55.30;20.10;;;20.60;63.50;;;;;;7399673;19;19982;-62
2023/05/30 02:31:00;;;;;;;55.47;20.17;;;20.60;63.50;;;;;;7400168;19;20384;-62
2023/05/30 02:33:32;;;;;;;50.40;18.48;;;20.60;63.60;;;;;;7397755;19;19926;-62
2023/05/30 02:36:01;;;;;;;57.38;18.88;;;20.60;63.50;;;;;;7400774;19;20280;-62
2023/05/30 02:38:30;;;;;;;49.75;18.17;;;20.60;63.60;;;;;;7400303;19;19982;-62
2023/05/30 02:40:59;;;;;;;48.72;18.05;;;20.60;63.60;;;;;;7401310;19;19926;-62
2023/05/30 02:43:28;;;;;;;52.40;18.02;;;20.60;63.70;;;;;;7400630;19;19990;-62
2023/05/30 02:45:57;;;;;;;47.20;17.42;;;20.60;63.60;;;;;;7401518;19;19930;-61
2023/05/30 02:48:26;;;;;;;45.67;17.85;;;20.60;63.60;;;;;;7399458;19;19954;-62
2023/05/30 02:50:58;;;;;;;51.08;17.17;;;20.60;63.70;;;;;;7395932;19;19922;-62
2023/05/30 02:53:30;;;;;;;50.58;18.40;;;20.60;63.80;;;;;;7401219;19;20404;-62
2023/05/30 02:55:59;;;;;;;51.83;17.45;;;20.60;63.80;;;;;;7401586;19;19962;-62
2023/05/30 02:58:28;;;;;;;51.75;18.08;;;20.50;64.30;;;;;;7398703;19;19923;-62
2023/05/30 03:00:57;;;;;;;49.35;18.67;;;20.50;63.80;;;;;;7400372;19;19926;-62
2023/05/30 03:03:26;;;;;;;48.58;16.25;;;20.50;63.80;;;;;;7400308;19;19927;-62
2023/05/30 03:05:59;;;;;;;49.78;18.02;;;20.50;63.80;;;;;;7402274;19;19926;-62
2023/05/30 03:08:28;;;;;;;52.85;17.63;;;20.50;63.80;;;;;;7401773;19;20285;-62
2023/05/30 03:10:57;;;;;;;41.83;16.70;;;20.50;63.80;;;;;;7400375;19;19922;-63
2023/05/30 03:13:26;;;;;;;49.47;17.73;;;20.50;64.50;;;;;;7399719;19;19985;-62
2023/05/30 03:15:55;;;;;;;47.15;17.45;;;20.50;63.90;;;;;;7401653;19;19992;-62
2023/05/30 03:18:25;;;;;;;49.20;16.38;;;20.50;63.90;;;;;;7401146;19;19998;-62
2023/05/30 03:20:54;;;;;;;48.25;16.95;;;20.50;64.00;;;;;;7400050;19;19977;-62
2023/05/30 03:23:26;;;;;;;47.45;17.73;;;20.50;64.00;;;;;;7400752;19;19933;-63
2023/05/30 03:25:55;;;;;;;46.30;16.73;;;20.50;64.00;;;;;;7399415;19;19935;-62
2023/05/30 03:28:24;;;;;;;47.67;16.63;;;20.50;64.00;;;;;;7400134;19;20269;-62
2023/05/30 03:30:55;;;;;;;43.58;16.58;;;20.50;64.00;;;;;;7400217;19;19978;-62
2023/05/30 03:33:28;;;;;;;47.22;16.13;;;20.50;64.10;;;;;;7397642;19;19926;-62
2023/05/30 03:35:57;;;;;;;50.47;17.95;;;20.50;64.10;;;;;;7397724;19;19918;-62
2023/05/30 03:38:28;;;;;;;42.03;16.00;;;20.50;64.00;;;;;;7400830;19;19974;-62
2023/05/30 03:40:57;;;;;;;46.05;15.43;;;20.50;64.10;;;;;;7399480;19;19929;-62
2023/05/30 03:43:26;;;;;;;43.65;15.73;;;20.50;64.10;;;;;;7399779;19;19926;-61
2023/05/30 03:45:55;;;;;;;44.22;15.55;;;20.40;64.00;;;;;;7399747;19;19926;-62
2023/05/30 03:48:24;;;;;;;42.60;15.10;;;20.50;64.10;;;;;;7400065;19;19983;-62
2023/05/30 03:50:53;;;;;;;34.50;14.88;;;20.50;64.00;;;;;;7400038;19;19919;-62
2023/05/30 03:53:22;;;;;;;44.28;16.45;;;20.50;64.10;;;;;;7399693;19;19934;-62
2023/05/30 03:55:54;;;;;;;41.70;15.10;;;20.40;64.00;;;;;;7399290;19;20602;-62
2023/05/30 03:58:23;;;;;;;43.88;14.85;;;20.40;64.00;;;;;;7399370;19;19994;-61
2023/05/30 04:00:52;;;;;;;42.00;14.63;;;20.40;64.10;;;;;;7398134;19;20017;-62
2023/05/30 04:03:21;;;;;;;45.63;16.05;;;20.50;64.20;;;;;;7401950;19;19922;-61
2023/05/30 04:05:50;;;;;;;40.58;14.07;;;20.40;64.20;;;;;;7404017;19;19956;-61
2023/05/30 04:08:19;;;;;;;38.80;15.63;;;20.40;64.20;;;;;;7405548;19;19922;-62
2023/05/30 04:10:48;;;;;;;41.17;14.80;;;20.50;64.20;;;;;;7407044;19;19928;-62
2023/05/30 04:13:20;;;;;;;40.58;14.68;;;20.40;64.20;;;;;;7405002;19;19923;-62
2023/05/30 04:15:49;;;;;;;38.33;14.07;;;20.40;64.20;;;;;;7405737;19;19918;-62
2023/05/30 04:18:18;;;;;;;38.63;14.50;;;20.40;64.20;;;;;;7405881;19;19918;-61
2023/05/30 04:20:48;;;;;;;37.20;13.95;;;20.40;64.20;;;;;;7403974;19;20367;-61
2023/05/30 04:23:17;;;;;;;40.78;15.07;;;20.40;64.20;;;;;;7402667;19;19929;-62
2023/05/30 04:25:47;;;;;;;40.53;15.43;;;20.40;64.20;;;;;;7404368;19;20572;-61
2023/05/30 04:28:19;;;;;;;41.65;14.02;;;20.40;64.20;;;;;;7403204;19;19926;-63
2023/05/30 04:30:49;;;;;;;37.53;13.95;;;20.40;64.20;;;;;;7403429;19;20270;-62
2023/05/30 04:33:18;;;;;;;35.15;13.73;;;20.40;64.30;;;;;;7403444;19;19918;-62
2023/05/30 04:35:48;;;;;;;40.33;13.82;;;20.40;64.30;;;;;;7398009;19;20253;-62
2023/05/30 04:38:20;;;;;;;;;;;20.40;64.30;;;;;;7404781;19;20263;-62
2023/05/30 04:40:51;;;;;;;33.42;12.88;;;20.40;64.30;;;;;;7404230;19;19919;-62
2023/05/30 04:43:24;;;;;;;40.35;14.88;;;20.40;64.30;;;;;;7399385;19;19993;-62
2023/05/30 04:45:54;;;;;;;36.10;13.73;;;20.40;64.20;;;;;;7403928;19;20348;-62
2023/05/30 04:48:24;;;;;;;36.88;14.15;;;20.40;64.30;;;;;;7396854;19;20337;-62
2023/05/30 04:50:53;;;;;;;34.70;12.73;;;20.40;64.20;;;;;;7394556;19;20723;-62
2023/05/30 04:53:22;;;;;;;36.08;13.93;;;20.40;64.30;;;;;;7402799;19;19922;-62
2023/05/30 04:55:52;;;;;;;36.63;13.35;;;20.40;64.30;;;;;;7401583;19;19922;-62
2023/05/30 04:58:24;;;;;;;37.20;13.18;;;20.40;64.30;;;;;;7403248;19;19922;-62
2023/05/30 05:00:53;;;;;;;33.95;13.88;;;20.40;64.30;;;;;;7400727;19;20337;-62
2023/05/30 05:03:22;;;;;;;41.20;15.10;;;20.30;64.20;;;;;;7398313;19;19928;-62
2023/05/30 05:05:51;;;;;;;39.05;14.68;;;20.40;64.30;;;;;;7401494;19;19926;-62
2023/05/30 05:08:20;;;;;;;39.05;13.38;;;20.40;64.30;;;;;;7403399;19;19922;-62
2023/05/30 05:10:49;;;;;;;34.42;13.32;;;20.40;64.30;;;;;;7405730;19;20271;-61
2023/05/30 05:13:18;;;;;;;36.50;13.93;;;20.40;64.30;;;;;;7399815;19;20328;-62
2023/05/30 05:15:50;;;;;;;34.28;12.40;;;20.40;64.40;;;;;;7403449;19;19942;-62
2023/05/30 05:18:19;;;;;;;34.38;11.98;;;20.40;64.40;;;;;;7401806;19;19922;-62
2023/05/30 05:20:49;;;;;;;32.88;12.65;;;20.40;64.40;;;;;;7404220;19;19974;-62
2023/05/30 05:23:18;;;;;;;34.63;12.93;;;20.30;64.40;;;;;;7401712;19;19926;-62
2023/05/30 05:25:48;;;;;;;30.60;11.98;;;20.40;64.40;;;;;;7406373;19;19946;-61
2023/05/30 05:28:17;;;;;;;32.13;12.38;;;20.30;64.40;;;;;;7402603;19;19926;-62
2023/05/30 05:30:49;;;;;;;30.73;12.25;;;20.30;64.40;;;;;;7403558;19;20363;-61
2023/05/30 05:33:19;;;;;;;32.63;12.07;;;20.30;64.40;;;;;;7402757;19;19915;-62
2023/05/30 05:35:48;;;;;;;33.50;12.95;;;20.30;64.40;;;;;;7401826;19;19929;-62
2023/05/30 05:38:18;;;;;;;29.70;11.98;;;20.40;64.40;;;;;;7403394;19;19946;-62
2023/05/30 05:40:47;;;;;;;32.80;12.10;;;20.40;64.50;;;;;;7399765;19;20311;-62
2023/05/30 05:43:16;;;;;;;32.35;12.32;;;20.30;64.40;;;;;;7382841;19;19914;-63
2023/05/30 05:45:45;;;;;;;31.92;12.48;;;20.40;64.50;;;;;;7388036;19;19951;-62
2023/05/30 05:48:17;;;;;;;30.88;11.98;;;20.40;64.50;;;;;;7390561;19;19946;-62
2023/05/30 05:50:46;;;;;;;27.40;11.52;;;20.30;64.50;;;;;;7384033;19;19923;-62
2023/05/30 05:53:15;;;;;;;31.58;11.63;;;20.40;64.50;;;;;;7386363;19;19931;-61
2023/05/30 05:55:45;;;;;;;33.22;12.25;;;20.30;64.50;;;;;;7390420;19;19923;-62
2023/05/30 05:58:14;;;;;;;31.42;11.63;;;20.40;64.50;;;;;;7401664;19;19914;-62
2023/05/30 06:00:43;;;;;;;33.17;11.90;;;20.40;64.50;;;;;;7397495;19;19922;-62
2023/05/30 06:03:12;;;;;;;28.02;11.15;;;20.40;64.50;;;;;;7392845;19;19926;-60
2023/05/30 06:05:44;;;;;;;28.42;11.38;;;20.40;64.50;;;;;;7401331;19;20369;-60
2023/05/30 06:08:13;;;;;;;24.58;9.82;;;20.40;64.60;;;;;;7402859;19;19946;-62
2023/05/30 06:10:42;;;;;;;24.45;9.75;;;20.30;64.80;;;;;;7397864;19;19981;-62
2023/05/30 06:13:11;;;;;;;22.65;9.38;;;20.30;64.90;;;;;;7397788;19;20021;-62
2023/05/30 06:15:40;;;;;;;20.75;8.38;;;20.20;65.00;;;;;;7397449;19;19942;-62
2023/05/30 06:18:09;;;;;;;24.02;7.75;;;20.20;65.10;;;;;;7399874;19;20431;-62
2023/05/30 06:20:38;;;;;;;21.77;7.85;;;20.20;65.40;;;;;;7378931;19;20012;-62
2023/05/30 06:23:10;;;;;;;21.67;8.82;;;20.20;66.00;;;;;;7392972;19;20259;-62
2023/05/30 06:25:39;;;;;;;24.83;8.88;;;20.20;66.10;;;;;;7401100;19;20371;-61
2023/05/30 06:28:08;;;;;;;23.88;8.63;;;20.20;66.00;;;;;;7402658;19;19926;-61
2023/05/30 06:30:37;;;;;;;23.48;8.55;;;20.20;66.00;;;;;;7401776;19;19922;-61
2023/05/30 06:33:06;;;;;;;23.02;8.82;;;20.20;66.00;;;;;;7400195;19;20393;-61
2023/05/30 06:35:35;;;;;;;25.27;9.27;;;20.20;66.00;;;;;;7402258;19;19925;-61
2023/05/30 06:38:04;;;;;;;20.65;8.05;;;20.20;66.00;;;;;;7400964;19;19922;-61
2023/05/30 06:40:36;;;;;;;25.58;8.48;;;20.20;66.00;;;;;;7400967;19;20280;-61
2023/05/30 06:43:05;;;;;;;25.45;8.82;;;20.20;66.00;;;;;;7399035;19;19981;-61
2023/05/30 06:45:34;;;;;;;21.23;8.45;;;20.20;65.90;;;;;;7400430;19;19937;-61
2023/05/30 06:48:03;;;;;;;23.88;8.77;;;20.20;65.90;;;;;;7401008;19;19930;-61
2023/05/30 06:50:32;;;;;;;22.67;8.75;;;20.20;65.90;;;;;;7400026;19;20245;-61
2023/05/30 06:53:02;;;;;;;22.33;9.10;;;20.20;65.90;;;;;;7401688;19;20531;-61
2023/05/30 06:55:31;;;;;;;19.08;7.80;;;20.20;65.80;;;;;;7402721;19;20005;-61
2023/05/30 06:58:02;;;;;;;23.98;8.60;;;20.20;65.80;;;;;;7400460;19;20388;-61
2023/05/30 07:00:31;;;;;;;23.55;8.52;;;20.20;65.70;;;;;;7398137;19;20170;-61
2023/05/30 07:03:00;;;;;;;20.30;8.85;;;20.30;65.80;;;;;;7400397;19;19966;-62
2023/05/30 07:05:30;;;;;;;18.75;7.80;;;20.30;65.80;;;;;;7400929;19;20329;-62
2023/05/30 07:07:59;;;;;;;22.73;7.88;;;20.30;65.70;;;;;;7400796;19;19935;-61
2023/05/30 07:10:28;;;;;;;23.08;8.48;;;20.30;65.70;;;;;;7402111;19;19974;-61
2023/05/30 07:12:57;;;;;;;21.15;7.80;;;20.30;65.70;;;;;;7402090;19;19947;-62
2023/05/30 07:15:31;;;;;;;21.23;7.90;;;20.30;65.70;;;;;;7402059;19;20420;-62
2023/05/30 07:18:00;;;;;;;20.85;7.63;;;20.30;65.60;;;;;;7402912;19;19921;-63
2023/05/30 07:20:29;;;;;;;18.30;7.78;;;20.30;65.70;;;;;;7400143;19;20353;-61
2023/05/30 07:22:58;;;;;;;19.92;7.30;;;20.30;65.60;;;;;;7401833;19;19954;-62
2023/05/30 07:25:28;;;;;;;20.55;7.18;;;20.30;65.60;;;;;;7401878;19;19918;-62
2023/05/30 07:27:57;;;;;;;19.40;7.30;;;20.30;65.60;;;;;;7402168;19;20036;-62
2023/05/30 07:30:29;;;;;;;17.35;7.47;;;20.30;65.60;;;;;;7399405;19;19930;-62
2023/05/30 07:32:58;;;;;;;19.25;7.32;;;20.30;65.60;;;;;;7402734;19;19922;-61
2023/05/30 07:35:27;;;;;;;19.27;7.75;;;20.30;65.60;;;;;;7401395;19;20392;-62
2023/05/30 07:37:56;;;;;;;20.67;7.57;;;20.30;65.50;;;;;;7407362;19;20427;-62
2023/05/30 07:40:25;;;;;;;18.75;7.72;;;20.30;65.50;;;;;;7408579;19;20365;-63
2023/05/30 07:42:54;;;;;;;18.02;6.65;;;20.40;65.60;;;;;;7406242;19;19948;-62
2023/05/30 07:45:23;;;;;;;20.40;6.97;;;20.30;65.50;;;;;;7408591;19;19974;-63
2023/05/30 07:47:55;;;;;;;22.02;8.57;;;20.40;65.50;;;;;;7408435;19;19952;-62
2023/05/30 07:50:24;;;;;;;18.42;8.00;;;20.40;65.60;;;;;;7408672;19;19947;-62
2023/05/30 07:52:53;;;;;;;18.13;7.05;;;20.40;65.50;;;;;;7407673;19;19918;-63
2023/05/30 07:55:22;;;;;;;18.67;7.18;;;20.50;65.50;;;;;;7407612;19;19918;-61
2023/05/30 07:57:51;;;;;;;19.05;7.70;;;20.40;65.50;;;;;;7407664;19;19952;-61
2023/05/30 08:00:21;;;;;;;18.52;6.82;;;20.50;65.40;;;;;;7407999;19;19914;-61
2023/05/30 08:02:50;;;;;;;19.50;6.85;;;20.50;65.40;;;;;;7407331;19;19922;-61
2023/05/30 08:05:22;;;;;;;17.73;6.72;;;20.50;65.40;;;;;;7407908;19;19915;-62
2023/05/30 08:07:51;;;;;;;19.63;7.47;;;20.50;65.30;;;;;;7408822;19;19915;-62
2023/05/30 08:10:20;;;;;;;16.77;6.32;;;20.50;65.30;;;;;;7406900;19;20289;-62
2023/05/30 08:12:49;;;;;;;16.52;6.30;;;20.60;65.40;;;;;;7406287;19;19919;-62
2023/05/30 08:15:18;;;;;;;19.05;6.45;;;20.60;65.30;;;;;;7407228;19;19990;-62
2023/05/30 08:17:47;;;;;;;16.70;6.47;;;20.60;65.30;;;;;;7407536;19;19918;-62
2023/05/30 08:20:16;;;;;;;16.98;7.03;;;20.60;65.20;;;;;;7406818;19;19994;-63
2023/05/30 08:22:48;;;;;;;18.08;7.10;;;20.60;65.20;;;;;;7406960;19;20341;-62
2023/05/30 08:25:17;;;;;;;16.77;5.72;;;20.70;65.30;;;;;;7406775;19;19922;-62
2023/05/30 08:27:47;;;;;;;18.85;6.70;;;20.70;65.30;;;;;;7407018;19;19923;-62
2023/05/30 08:30:16;;;;;;;17.25;6.78;;;20.60;65.20;;;;;;7406491;19;20335;-63
2023/05/30 08:32:45;;;;;;;15.88;6.85;;;20.60;65.20;;;;;;7406993;19;20161;-62
2023/05/30 08:35:14;;;;;;;17.48;6.40;;;20.70;65.20;;;;;;7407385;19;20438;-62
2023/05/30 08:37:43;;;;;;;17.48;6.22;;;20.70;65.20;;;;;;7406938;19;19978;-63
2023/05/30 08:40:16;;;;;;;15.27;6.53;;;20.70;65.20;;;;;;7407837;19;19938;-62
2023/05/30 08:42:46;;;;;;;18.27;6.25;;;20.70;65.20;;;;;;7406968;19;20258;-62
2023/05/30 08:45:15;;;;;;;14.20;6.22;;;20.70;65.20;;;;;;7407202;19;19919;-63
2023/05/30 08:47:45;;;;;;;18.88;6.40;;;20.70;65.20;;;;;;7406517;19;19918;-62
2023/05/30 08:50:17;;;;;;;15.30;6.35;;;20.70;65.10;;;;;;7404769;19;19923;-62
2023/05/30 08:52:48;;;;;;;15.60;6.53;;;20.80;65.10;;;;;;7406361;19;19919;-62
2023/05/30 08:55:24;;;;;;;17.73;6.40;;;20.70;64.90;;;;;;7405663;19;19954;-62
2023/05/30 08:58:00;;;;;;;16.15;5.93;;;20.80;64.90;;;;;;7404876;19;19990;-62
2023/05/30 09:00:30;;;;;;;15.57;6.05;;;20.80;64.90;;;;;;7406997;19;19923;-62
2023/05/30 09:03:00;;;;;;;15.82;6.00;;;20.90;65.00;;;;;;7406449;19;19911;-62
2023/05/30 09:05:29;;;;;;;16.67;6.07;;;20.90;65.00;;;;;;7405563;19;19916;-63
2023/05/30 09:07:59;;;;;;;14.95;6.43;;;20.90;65.00;;;;;;7405839;19;19978;-62
2023/05/30 09:10:32;;;;;;;14.32;5.75;;;20.80;64.90;;;;;;7405665;19;20295;-62
2023/05/30 09:13:01;;;;;;;16.52;6.65;;;20.80;65.00;;;;;;7403009;19;19942;-62
2023/05/30 09:15:31;;;;;;;16.65;6.55;;;20.80;65.00;;;;;;7406614;19;19927;-63
2023/05/30 09:18:00;;;;;;;15.90;6.47;;;20.80;65.10;;;;;;7406447;19;19986;-62
2023/05/30 09:20:33;;;;;;;16.20;5.43;;;20.80;65.10;;;;;;7405133;19;19919;-62
2023/05/30 09:23:02;;;;;;;13.65;5.55;;;20.80;65.10;;;;;;7405131;19;20285;-63
2023/05/30 09:25:43;;;;;;;14.93;5.60;;;20.80;65.10;;;;;;7405742;19;19910;-62
2023/05/30 09:28:14;;;;;;;15.50;5.80;;;20.80;65.10;;;;;;7404162;19;19921;-61
2023/05/30 09:30:56;;;;;;;14.75;5.78;;;20.80;65.20;;;;;;7405729;19;20335;-62
2023/05/30 09:33:26;;;;;;;15.27;5.70;;;20.80;65.20;;;;;;7405391;19;19918;-61
2023/05/30 09:35:56;;;;;;;13.98;5.57;;;20.80;65.20;;;;;;7405504;19;20387;-61
2023/05/30 09:38:25;;;;;;;13.68;5.28;;;20.80;65.20;;;;;;7405537;19;19918;-62
2023/05/30 09:41:05;;;;;;;13.75;5.68;;;20.80;65.20;;;;;;7406345;19;19935;-62
2023/05/30 09:43:35;;;;;;;14.23;5.28;;;20.80;65.10;;;;;;7404481;19;20545;-62
2023/05/30 09:46:06;;;;;;;13.75;5.65;;;20.90;65.10;;;;;;7404922;19;19971;-62
2023/05/30 09:48:36;;;;;;;16.40;6.28;;;20.90;65.10;;;;;;7404757;19;19926;-62
2023/05/30 09:51:05;;;;;;;;;;;20.90;65.10;;;;;;7408433;19;19918;-62
2023/05/30 09:53:36;;;;;;;14.55;5.60;;;20.90;65.00;;;;;;7404889;19;19931;-62
2023/05/30 09:56:08;;;;;;;12.93;5.22;;;20.90;65.10;;;;;;7405726;19;19918;-62
2023/05/30 09:58:40;;;;;;;13.88;5.13;;;20.90;65.00;;;;;;7403797;19;19930;-62
2023/05/30 10:01:18;;;;;;;13.13;5.45;;;20.90;65.00;;;;;;7401947;19;19985;-61
2023/05/30 10:03:47;;;;;;;12.95;5.35;;;20.90;65.00;;;;;;7404682;19;19918;-62
2023/05/30 10:06:17;;;;;;;12.65;5.15;;;21.00;65.10;;;;;;7404004;19;19918;-62
2023/05/30 10:08:48;;;;;;;14.55;5.90;;;21.00;65.10;;;;;;7393546;19;19986;-62
2023/05/30 10:11:20;;;;;;;15.02;5.50;;;21.00;65.10;;;;;;7398265;19;19927;-62
2023/05/30 10:13:49;;;;;;;12.93;5.10;;;21.00;65.10;;;;;;7395854;19;19926;-62
2023/05/30 10:16:22;;;;;;;11.18;5.22;;;21.00;65.10;;;;;;7396934;19;19927;-62
2023/05/30 10:18:58;;;;;;;12.65;4.78;;;21.00;65.10;;;;;;7400722;19;19978;-62
2023/05/30 10:21:28;;;;;;;13.27;4.70;;;21.00;65.10;;;;;;7398337;19;19930;-61
2023/05/30 10:23:58;;;;;;;12.63;5.00;;;21.10;65.20;;;;;;7399796;19;20291;-62
2023/05/30 10:26:33;;;;;;;13.07;5.07;;;21.10;65.10;;;;;;7402137;19;20230;-62
2023/05/30 10:29:05;;;;;;;13.57;5.50;;;21.10;65.10;;;;;;7400017;19;20040;-61
2023/05/30 10:31:35;;;;;;;10.05;4.00;;;21.10;65.10;;;;;;7399315;19;19982;-62
2023/05/30 10:34:07;;;;;;;10.82;4.30;;;21.10;65.20;;;;;;7399737;19;19922;-62
2023/05/30 10:36:41;;;;;;;9.82;4.60;;;21.00;65.10;;;;;;7400523;19;19932;-62
2023/05/30 10:39:19;;;;;;;11.48;4.70;;;21.10;65.20;;;;;;7392638;19;19931;-63
2023/05/30 10:41:57;;;;;;;11.38;5.13;;;21.10;65.10;;;;;;7396546;19;20263;-62
2023/05/30 10:44:40;;;;;;;11.77;4.53;;;21.10;65.10;;;;;;7396939;19;19919;-61
2023/05/30 10:47:27;;;;;;;11.55;4.88;;;21.20;65.10;;;;;;7397295;19;19938;-62
2023/05/30 10:50:03;;;;;;;10.80;4.95;;;21.20;65.10;;;;;;7398438;19;19922;-62
2023/05/30 10:52:35;;;;;;;11.27;4.13;;;21.10;65.10;;;;;;7399100;19;19925;-61
2023/05/30 10:55:11;;;;;;;9.98;4.05;;;21.10;65.20;;;;;;7399663;19;20325;-62
2023/05/30 10:57:43;;;;;;;;;;;21.10;65.10;;;;;;7400871;19;20371;-62
2023/05/30 11:00:25;;;;;;;11.30;4.53;;;21.10;65.10;;;;;;7399649;19;19926;-62
2023/05/30 11:02:57;;;;;;;8.60;3.50;;;21.10;65.20;;;;;;7396304;19;19919;-62
2023/05/30 11:05:30;;;;;;;8.70;4.00;;;21.20;65.20;;;;;;7395278;19;20273;-61
2023/05/30 11:08:00;;;;;;;11.48;4.40;;;21.20;65.30;;;;;;7398886;19;19978;-62
2023/05/30 11:10:31;;;;;;;9.60;4.00;;;21.20;65.30;;;;;;7399663;19;19933;-62
2023/05/30 11:13:14;;;;;;;10.90;4.07;;;21.20;65.20;;;;;;7395649;19;19934;-62
2023/05/30 11:15:47;;;;;;;9.93;4.00;;;21.20;65.20;;;;;;7398375;19;20345;-61
2023/05/30 11:18:21;;;;;;;10.00;4.45;;;21.30;65.30;;;;;;7392817;19;20318;-61
2023/05/30 11:20:54;;;;;;;11.02;4.50;;;21.30;65.20;;;;;;7394074;19;19914;-62
2023/05/30 11:23:24;;;;;;;11.15;4.07;;;21.30;65.20;;;;;;7396601;19;19927;-61
2023/05/30 11:25:56;;;;;;;8.70;3.38;;;21.30;65.30;;;;;;7399460;19;19922;-62
2023/05/30 11:28:38;;;;;;;11.25;4.18;;;21.30;65.20;;;;;;7398781;19;19993;-61
2023/05/30 11:31:19;;;;;;;9.77;3.63;;;21.30;65.20;;;;;;7400253;19;19974;-61
2023/05/30 11:33:51;;;;;;;10.32;3.75;;;21.30;65.30;;;;;;7400599;19;19918;-61
2023/05/30 11:36:21;;;;;;;9.82;4.20;;;21.20;65.30;;;;;;7396695;19;19926;-61
2023/05/30 11:38:52;;;;;;;10.63;3.95;;;21.20;65.30;;;;;;7399682;19;19926;-62
2023/05/30 11:41:22;;;;;;;8.27;3.58;;;21.20;65.20;;;;;;7400957;19;19922;-62
2023/05/30 11:43:53;;;;;;;8.77;3.65;;;21.20;65.30;;;;;;7400870;19;20008;-61
2023/05/30 11:46:24;;;;;;;9.07;3.83;;;21.20;65.30;;;;;;7399133;19;19926;-61
2023/05/30 11:48:59;;;;;;;10.10;4.28;;;21.20;65.30;;;;;;7398435;19;20363;-62
2023/05/30 11:51:30;;;;;;;7.57;3.17;;;21.20;65.30;;;;;;7397073;19;19926;-62
2023/05/30 11:53:59;;;;;;;9.65;3.38;;;21.20;65.30;;;;;;7397255;19;19922;-61
2023/05/30 11:56:31;;;;;;;8.90;3.40;;;21.20;65.30;;;;;;7400059;19;19954;-62
2023/05/30 11:59:03;;;;;;;9.55;3.80;;;21.20;65.40;;;;;;7399118;19;19919;-62
2023/05/30 12:01:32;;;;;;;9.65;3.63;;;21.20;65.40;;;;;;7398385;19;19950;-62
2023/05/30 12:04:01;;;;;;;8.82;3.55;;;21.20;65.30;;;;;;7395139;19;19922;-62
2023/05/30 12:06:34;;;;;;;8.80;3.35;;;21.20;65.40;;;;;;7399732;19;19915;-61
2023/05/30 12:09:03;;;;;;;10.45;4.28;;;21.20;65.40;;;;;;7397635;19;20368;-61
2023/05/30 12:11:32;;;;;;;8.95;3.90;;;21.20;65.30;;;;;;7399304;19;19990;-61
2023/05/30 12:14:04;;;;;;;9.35;4.05;;;21.30;65.40;;;;;;7400093;19;19926;-62
2023/05/30 12:16:33;;;;;;;8.25;3.67;;;21.30;65.30;;;;;;7400434;19;19946;-62
2023/05/30 12:19:03;;;;;;;8.52;3.40;;;21.30;65.30;;;;;;7391870;19;19994;-62
2023/05/30 12:21:36;;;;;;;8.98;3.67;;;21.30;65.30;;;;;;7391874;19;20189;-62
2023/05/30 12:24:11;;;;;;;7.75;3.42;;;21.30;65.20;;;;;;7395501;19;19941;-61
2023/05/30 12:26:48;;;;;;;8.98;3.70;;;21.30;65.20;;;;;;7404344;19;20288;-62
2023/05/30 12:29:20;;;;;;;7.10;3.78;;;21.30;65.20;;;;;;7404136;19;20367;-62
2023/05/30 12:31:50;;;;;;;7.78;3.13;;;21.40;65.20;;;;;;7406525;19;19923;-62
2023/05/30 12:34:19;;;;;;;;;;;21.40;65.10;;;;;;7406358;19;19918;-62
2023/05/30 12:36:49;;;;;;;9.30;3.17;;;21.40;65.20;;;;;;7404193;19;19946;-62
2023/05/30 12:39:18;;;;;;;7.68;3.28;;;21.40;65.20;;;;;;7405841;19;19976;-62
2023/05/30 12:41:47;;;;;;;7.30;2.72;;;21.40;65.10;;;;;;7405529;19;19950;-62
2023/05/30 12:44:22;;;;;;;9.40;3.33;;;21.40;65.10;;;;;;7403698;19;20341;-62
2023/05/30 12:46:51;;;;;;;9.77;3.42;;;21.40;65.10;;;;;;7397970;19;19911;-61
2023/05/30 12:49:20;;;;;;;6.90;3.15;;;21.40;65.20;;;;;;7402118;19;20416;-61
2023/05/30 12:51:49;;;;;;;7.50;2.92;;;21.40;65.20;;;;;;7404693;19;19968;-61
2023/05/30 12:54:18;;;;;;;8.93;3.80;;;21.40;65.20;;;;;;7403837;19;19930;-61
2023/05/30 12:56:47;;;;;;;8.45;3.15;;;21.40;65.20;;;;;;7403725;19;19976;-61